sensor_id;sensor_type;location;lat;lon;timestamp;temperature;humidity
30206;DHT22;17010;51.306;3.150;2023-07-13T06:07:31;19.90;99.90
30206;DHT22;17010;51.306;3.150;2023-07-13T06:09:58;20.60;99.90
30206;DHT22;17010;51.306;3.150;2023-07-13T06:12:25;21.10;99.90
30206;DHT22;17010;51.306;3.150;2023-07-13T06:14:52;21.70;99.90
30206;DHT22;17010;51.306;3.150;2023-07-13T06:17:20;22.20;99.90
30206;DHT22;17010;51.306;3.150;2023-07-13T06:19:46;22.80;99.90
30206;DHT22;17010;51.306;3.150;2023-07-13T06:22:12;23.40;99.90
30206;DHT22;17010;51.306;3.150;2023-07-13T06:24:38;23.70;99.90
30206;DHT22;17010;51.306;3.150;2023-07-13T06:27:05;24.10;99.90
30206;DHT22;17010;51.306;3.150;2023-07-13T06:29:31;24.40;99.90
30206;DHT22;17010;51.306;3.150;2023-07-13T06:31:58;24.80;99.90
30206;DHT22;17010;51.306;3.150;2023-07-13T06:34:24;25.20;99.90
30206;DHT22;17010;51.306;3.150;2023-07-13T06:36:51;25.40;99.90
30206;DHT22;17010;51.306;3.150;2023-07-13T06:39:18;25.60;99.90
30206;DHT22;17010;51.306;3.150;2023-07-13T06:41:44;25.90;99.90
30206;DHT22;17010;51.306;3.150;2023-07-13T06:44:10;26.30;99.90
30206;DHT22;17010;51.306;3.150;2023-07-13T06:46:38;26.50;99.90
30206;DHT22;17010;51.306;3.150;2023-07-13T06:49:04;26.60;99.90
30206;DHT22;17010;51.306;3.150;2023-07-13T06:51:31;26.60;99.90
30206;DHT22;17010;51.306;3.150;2023-07-13T06:53:58;26.80;99.90
30206;DHT22;17010;51.306;3.150;2023-07-13T06:56:24;26.90;99.90
30206;DHT22;17010;51.306;3.150;2023-07-13T06:58:50;26.70;99.90
30206;DHT22;17010;51.306;3.150;2023-07-13T07:01:16;26.60;99.90
30206;DHT22;17010;51.306;3.150;2023-07-13T07:03:43;26.30;99.90
30206;DHT22;17010;51.306;3.150;2023-07-13T07:08:41;25.80;99.90
30206;DHT22;17010;51.306;3.150;2023-07-13T07:11:16;25.50;99.90
30206;DHT22;17010;51.306;3.150;2023-07-13T07:13:51;25.60;99.90
30206;DHT22;17010;51.306;3.150;2023-07-13T07:16:19;25.60;99.90
30206;DHT22;17010;51.306;3.150;2023-07-13T07:18:46;25.20;99.90
30206;DHT22;17010;51.306;3.150;2023-07-13T07:21:14;24.70;99.90
30206;DHT22;17010;51.306;3.150;2023-07-13T07:23:41;24.10;99.90
30206;DHT22;17010;51.306;3.150;2023-07-13T07:26:09;23.90;99.90
30206;DHT22;17010;51.306;3.150;2023-07-13T07:28:36;24.10;99.90
30206;DHT22;17010;51.306;3.150;2023-07-13T07:31:03;24.70;99.90
30206;DHT22;17010;51.306;3.150;2023-07-13T07:33:32;25.30;99.90
30206;DHT22;17010;51.306;3.150;2023-07-13T07:35:59;25.90;99.90
30206;DHT22;17010;51.306;3.150;2023-07-13T07:38:25;26.20;99.90
30206;DHT22;17010;51.306;3.150;2023-07-13T07:40:54;26.10;99.90
30206;DHT22;17010;51.306;3.150;2023-07-13T07:43:20;25.80;99.90
30206;DHT22;17010;51.306;3.150;2023-07-13T07:45:47;25.70;99.90
30206;DHT22;17010;51.306;3.150;2023-07-13T07:48:14;25.90;99.90
30206;DHT22;17010;51.306;3.150;2023-07-13T07:50:40;26.30;99.90
30206;DHT22;17010;51.306;3.150;2023-07-13T07:53:10;26.80;99.90
30206;DHT22;17010;51.306;3.150;2023-07-13T07:55:38;27.20;99.90
30206;DHT22;17010;51.306;3.150;2023-07-13T07:58:05;27.50;99.90
30206;DHT22;17010;51.306;3.150;2023-07-13T08:00:32;27.80;99.90
30206;DHT22;17010;51.306;3.150;2023-07-13T08:02:59;27.70;99.90
30206;DHT22;17010;51.306;3.150;2023-07-13T08:05:26;27.80;99.90
30206;DHT22;17010;51.306;3.150;2023-07-13T08:07:52;28.10;99.90
30206;DHT22;17010;51.306;3.150;2023-07-13T08:10:18;28.10;99.90
30206;DHT22;17010;51.306;3.150;2023-07-13T08:12:46;27.80;99.90
30206;DHT22;17010;51.306;3.150;2023-07-13T08:15:14;28.20;99.90
30206;DHT22;17010;51.306;3.150;2023-07-13T08:17:41;28.50;99.90
30206;DHT22;17010;51.306;3.150;2023-07-13T08:20:08;28.70;99.90
30206;DHT22;17010;51.306;3.150;2023-07-13T08:22:35;28.40;99.90
30206;DHT22;17010;51.306;3.150;2023-07-13T08:25:01;28.20;99.90
30206;DHT22;17010;51.306;3.150;2023-07-13T08:27:29;28.40;99.90
30206;DHT22;17010;51.306;3.150;2023-07-13T08:29:55;28.90;99.90
30206;DHT22;17010;51.306;3.150;2023-07-13T08:32:22;29.30;99.90
30206;DHT22;17010;51.306;3.150;2023-07-13T08:34:50;29.40;99.90
30206;DHT22;17010;51.306;3.150;2023-07-13T08:37:17;29.20;99.90
30206;DHT22;17010;51.306;3.150;2023-07-13T08:39:45;29.40;99.90
30206;DHT22;17010;51.306;3.150;2023-07-13T08:48:16;28.90;99.90
30206;DHT22;17010;51.306;3.150;2023-07-13T08:53:17;30.00;99.90
30206;DHT22;17010;51.306;3.150;2023-07-13T08:55:44;30.10;99.90
30206;DHT22;17010;51.306;3.150;2023-07-13T08:58:15;30.60;99.90
30206;DHT22;17010;51.306;3.150;2023-07-13T09:00:52;30.80;99.90
30206;DHT22;17010;51.306;3.150;2023-07-13T09:03:23;30.90;99.90
30206;DHT22;17010;51.306;3.150;2023-07-13T09:05:58;30.80;99.90
30206;DHT22;17010;51.306;3.150;2023-07-13T09:08:44;30.80;99.90
30206;DHT22;17010;51.306;3.150;2023-07-13T09:14:06;31.20;99.90
30206;DHT22;17010;51.306;3.150;2023-07-13T09:16:37;31.20;99.90
30206;DHT22;17010;51.306;3.150;2023-07-13T09:19:06;31.00;99.90
30206;DHT22;17010;51.306;3.150;2023-07-13T09:21:36;30.90;99.90
30206;DHT22;17010;51.306;3.150;2023-07-13T09:24:28;30.50;99.90
30206;DHT22;17010;51.306;3.150;2023-07-13T09:26:56;30.40;99.90
30206;DHT22;17010;51.306;3.150;2023-07-13T09:29:32;30.20;99.90
30206;DHT22;17010;51.306;3.150;2023-07-13T09:32:03;30.60;99.90
30206;DHT22;17010;51.306;3.150;2023-07-13T09:34:30;30.60;99.90
30206;DHT22;17010;51.306;3.150;2023-07-13T09:36:58;30.70;99.90
30206;DHT22;17010;51.306;3.150;2023-07-13T09:39:29;31.10;99.90
30206;DHT22;17010;51.306;3.150;2023-07-13T09:45:02;31.00;99.90
30206;DHT22;17010;51.306;3.150;2023-07-13T09:47:31;31.10;99.90
30206;DHT22;17010;51.306;3.150;2023-07-13T09:50:00;31.30;99.90
30206;DHT22;17010;51.306;3.150;2023-07-13T09:52:28;31.60;99.90
30206;DHT22;17010;51.306;3.150;2023-07-13T09:57:50;30.70;99.90
30206;DHT22;17010;51.306;3.150;2023-07-13T10:00:28;30.40;99.90
30206;DHT22;17010;51.306;3.150;2023-07-13T10:03:14;30.20;99.90
30206;DHT22;17010;51.306;3.150;2023-07-13T10:05:44;30.50;99.90
30206;DHT22;17010;51.306;3.150;2023-07-13T10:08:28;30.50;99.90
30206;DHT22;17010;51.306;3.150;2023-07-13T10:11:01;30.10;99.90
30206;DHT22;17010;51.306;3.150;2023-07-13T10:13:34;29.70;99.90
30206;DHT22;17010;51.306;3.150;2023-07-13T10:16:04;29.50;99.90
30206;DHT22;17010;51.306;3.150;2023-07-13T10:18:39;29.30;99.90
30206;DHT22;17010;51.306;3.150;2023-07-13T10:21:17;29.30;99.90
30206;DHT22;17010;51.306;3.150;2023-07-13T10:23:51;28.90;99.90
30206;DHT22;17010;51.306;3.150;2023-07-13T10:26:23;29.10;99.90
30206;DHT22;17010;51.306;3.150;2023-07-13T10:28:54;29.30;99.90
30206;DHT22;17010;51.306;3.150;2023-07-13T10:31:23;29.50;99.90
30206;DHT22;17010;51.306;3.150;2023-07-13T10:33:52;29.10;99.90
30206;DHT22;17010;51.306;3.150;2023-07-13T10:36:33;29.20;99.90
30206;DHT22;17010;51.306;3.150;2023-07-13T10:39:02;28.60;99.90
30206;DHT22;17010;51.306;3.150;2023-07-13T10:41:33;28.40;99.90
30206;DHT22;17010;51.306;3.150;2023-07-13T10:44:01;28.30;99.90
30206;DHT22;17010;51.306;3.150;2023-07-13T10:46:29;28.20;99.90
30206;DHT22;17010;51.306;3.150;2023-07-13T10:49:04;28.60;99.90
30206;DHT22;17010;51.306;3.150;2023-07-13T10:51:32;29.30;99.90
30206;DHT22;17010;51.306;3.150;2023-07-13T10:54:15;29.70;99.90
30206;DHT22;17010;51.306;3.150;2023-07-13T10:56:43;29.90;99.90
30206;DHT22;17010;51.306;3.150;2023-07-13T10:59:14;30.30;99.90
30206;DHT22;17010;51.306;3.150;2023-07-13T11:01:58;30.20;99.90
30206;DHT22;17010;51.306;3.150;2023-07-13T11:04:29;30.70;99.90
30206;DHT22;17010;51.306;3.150;2023-07-13T11:07:18;30.50;99.90
30206;DHT22;17010;51.306;3.150;2023-07-13T11:09:48;30.80;99.90
30206;DHT22;17010;51.306;3.150;2023-07-13T11:15:05;30.90;99.90
30206;DHT22;17010;51.306;3.150;2023-07-13T11:25:43;30.90;99.90
30206;DHT22;17010;51.306;3.150;2023-07-13T11:28:17;31.00;99.90
30206;DHT22;17010;51.306;3.150;2023-07-13T11:33:22;30.20;99.90
30206;DHT22;17010;51.306;3.150;2023-07-13T11:36:04;30.30;99.90
30206;DHT22;17010;51.306;3.150;2023-07-13T11:38:35;30.60;99.90
30206;DHT22;17010;51.306;3.150;2023-07-13T11:41:10;31.10;99.90
30206;DHT22;17010;51.306;3.150;2023-07-13T11:43:38;30.70;99.90
30206;DHT22;17010;51.306;3.150;2023-07-13T11:48:48;29.60;99.90
30206;DHT22;17010;51.306;3.150;2023-07-13T11:51:37;29.30;99.90
30206;DHT22;17010;51.306;3.150;2023-07-13T11:54:10;29.20;99.90
30206;DHT22;17010;51.306;3.150;2023-07-13T11:56:39;29.30;99.90
30206;DHT22;17010;51.306;3.150;2023-07-13T11:59:07;29.00;99.90
30206;DHT22;17010;51.306;3.150;2023-07-13T12:01:34;29.40;99.90
30206;DHT22;17010;51.306;3.150;2023-07-13T12:04:09;29.90;99.90
30206;DHT22;17010;51.306;3.150;2023-07-13T12:06:44;29.60;99.90
30206;DHT22;17010;51.306;3.150;2023-07-13T12:09:14;29.50;99.90
30206;DHT22;17010;51.306;3.150;2023-07-13T12:11:45;29.90;99.90
30206;DHT22;17010;51.306;3.150;2023-07-13T12:14:18;30.00;99.90
30206;DHT22;17010;51.306;3.150;2023-07-13T12:16:46;29.90;99.90
30206;DHT22;17010;51.306;3.150;2023-07-13T12:19:25;29.60;99.90
30206;DHT22;17010;51.306;3.150;2023-07-13T12:21:55;29.30;99.90
30206;DHT22;17010;51.306;3.150;2023-07-13T12:24:25;28.60;99.90
30206;DHT22;17010;51.306;3.150;2023-07-13T12:27:00;28.40;99.90
30206;DHT22;17010;51.306;3.150;2023-07-13T12:29:27;28.70;99.90
30206;DHT22;17010;51.306;3.150;2023-07-13T12:31:54;28.90;99.90
30206;DHT22;17010;51.306;3.150;2023-07-13T12:34:23;29.00;99.90
30206;DHT22;17010;51.306;3.150;2023-07-13T12:37:01;29.00;99.90
30206;DHT22;17010;51.306;3.150;2023-07-13T12:39:35;29.50;99.90
30206;DHT22;17010;51.306;3.150;2023-07-13T12:42:22;29.20;99.90
30206;DHT22;17010;51.306;3.150;2023-07-13T12:45:03;28.70;99.90
30206;DHT22;17010;51.306;3.150;2023-07-13T12:47:42;28.30;99.90
30206;DHT22;17010;51.306;3.150;2023-07-13T12:50:17;28.20;99.90
30206;DHT22;17010;51.306;3.150;2023-07-13T12:52:49;27.70;99.90
30206;DHT22;17010;51.306;3.150;2023-07-13T12:55:18;27.50;99.90
30206;DHT22;17010;51.306;3.150;2023-07-13T12:57:55;27.70;99.90
30206;DHT22;17010;51.306;3.150;2023-07-13T13:00:27;28.00;99.90
30206;DHT22;17010;51.306;3.150;2023-07-13T13:02:55;28.20;99.90
30206;DHT22;17010;51.306;3.150;2023-07-13T13:05:25;27.90;99.90
30206;DHT22;17010;51.306;3.150;2023-07-13T13:07:51;27.60;99.90
30206;DHT22;17010;51.306;3.150;2023-07-13T13:10:18;27.60;99.90
30206;DHT22;17010;51.306;3.150;2023-07-13T13:12:44;27.60;99.90
30206;DHT22;17010;51.306;3.150;2023-07-13T13:15:11;27.10;99.90
30206;DHT22;17010;51.306;3.150;2023-07-13T13:17:38;27.20;99.90
30206;DHT22;17010;51.306;3.150;2023-07-13T13:20:19;27.30;99.90
30206;DHT22;17010;51.306;3.150;2023-07-13T13:22:47;26.80;99.90
30206;DHT22;17010;51.306;3.150;2023-07-13T13:25:14;26.80;99.90
30206;DHT22;17010;51.306;3.150;2023-07-13T13:27:45;27.10;99.90
30206;DHT22;17010;51.306;3.150;2023-07-13T13:30:13;27.20;99.90
30206;DHT22;17010;51.306;3.150;2023-07-13T13:32:41;27.10;99.90
30206;DHT22;17010;51.306;3.150;2023-07-13T13:35:20;27.00;99.90
30206;DHT22;17010;51.306;3.150;2023-07-13T13:37:47;26.20;99.90
30206;DHT22;17010;51.306;3.150;2023-07-13T13:40:15;26.00;99.90
30206;DHT22;17010;51.306;3.150;2023-07-13T13:42:42;25.90;99.90
30206;DHT22;17010;51.306;3.150;2023-07-13T13:45:13;25.70;99.90
30206;DHT22;17010;51.306;3.150;2023-07-13T13:47:39;25.60;99.90
30206;DHT22;17010;51.306;3.150;2023-07-13T13:50:21;25.60;99.90
30206;DHT22;17010;51.306;3.150;2023-07-13T13:52:48;25.70;99.90
30206;DHT22;17010;51.306;3.150;2023-07-13T13:55:16;25.50;99.90
30206;DHT22;17010;51.306;3.150;2023-07-13T13:57:46;25.30;99.90
30206;DHT22;17010;51.306;3.150;2023-07-13T14:00:16;24.90;99.90
30206;DHT22;17010;51.306;3.150;2023-07-13T14:02:47;24.60;99.90
30206;DHT22;17010;51.306;3.150;2023-07-13T14:05:14;24.40;99.90
30206;DHT22;17010;51.306;3.150;2023-07-13T14:07:43;24.40;99.90
30206;DHT22;17010;51.306;3.150;2023-07-13T14:10:18;24.40;99.90
30206;DHT22;17010;51.306;3.150;2023-07-13T14:12:45;24.50;99.90
30206;DHT22;17010;51.306;3.150;2023-07-13T14:17:50;24.40;99.90
30206;DHT22;17010;51.306;3.150;2023-07-13T14:20:18;24.40;99.90
30206;DHT22;17010;51.306;3.150;2023-07-13T14:22:48;24.40;99.90
30206;DHT22;17010;51.306;3.150;2023-07-13T14:25:17;24.50;99.90
30206;DHT22;17010;51.306;3.150;2023-07-13T14:27:45;24.50;99.90
30206;DHT22;17010;51.306;3.150;2023-07-13T14:30:14;24.30;99.90
30206;DHT22;17010;51.306;3.150;2023-07-13T14:32:41;24.00;99.90
30206;DHT22;17010;51.306;3.150;2023-07-13T14:35:12;23.80;99.90
30206;DHT22;17010;51.306;3.150;2023-07-13T14:37:42;23.90;99.90
30206;DHT22;17010;51.306;3.150;2023-07-13T14:40:14;24.00;99.90
30206;DHT22;17010;51.306;3.150;2023-07-13T14:42:40;24.10;99.90
30206;DHT22;17010;51.306;3.150;2023-07-13T14:45:14;24.00;99.90
30206;DHT22;17010;51.306;3.150;2023-07-13T14:47:40;24.00;99.90
30206;DHT22;17010;51.306;3.150;2023-07-13T14:50:13;24.00;99.90
30206;DHT22;17010;51.306;3.150;2023-07-13T14:52:40;23.80;99.90
30206;DHT22;17010;51.306;3.150;2023-07-13T14:55:15;23.70;99.90
30206;DHT22;17010;51.306;3.150;2023-07-13T14:57:42;23.70;99.90
30206;DHT22;17010;51.306;3.150;2023-07-13T15:00:15;23.80;99.90
30206;DHT22;17010;51.306;3.150;2023-07-13T15:02:44;23.80;99.90
30206;DHT22;17010;51.306;3.150;2023-07-13T15:05:19;23.90;99.90
30206;DHT22;17010;51.306;3.150;2023-07-13T15:07:49;23.80;99.90
30206;DHT22;17010;51.306;3.150;2023-07-13T15:10:20;23.90;99.90
30206;DHT22;17010;51.306;3.150;2023-07-13T15:12:47;23.90;99.90
30206;DHT22;17010;51.306;3.150;2023-07-13T15:15:15;23.90;99.90
30206;DHT22;17010;51.306;3.150;2023-07-13T15:17:43;23.90;99.90
30206;DHT22;17010;51.306;3.150;2023-07-13T15:22:43;23.80;99.90
30206;DHT22;17010;51.306;3.150;2023-07-13T15:25:19;23.80;99.90
30206;DHT22;17010;51.306;3.150;2023-07-13T15:27:46;23.80;99.90
30206;DHT22;17010;51.306;3.150;2023-07-13T15:30:14;23.80;99.90
30206;DHT22;17010;51.306;3.150;2023-07-13T15:32:45;23.80;99.90
30206;DHT22;17010;51.306;3.150;2023-07-13T15:35:21;23.70;99.90
30206;DHT22;17010;51.306;3.150;2023-07-13T15:37:50;23.60;99.90
30206;DHT22;17010;51.306;3.150;2023-07-13T15:40:18;23.50;99.90
30206;DHT22;17010;51.306;3.150;2023-07-13T15:42:50;23.40;99.90
30206;DHT22;17010;51.306;3.150;2023-07-13T15:45:22;23.20;99.90
30206;DHT22;17010;51.306;3.150;2023-07-13T15:47:50;23.10;99.90
30206;DHT22;17010;51.306;3.150;2023-07-13T15:50:19;23.00;99.90
30206;DHT22;17010;51.306;3.150;2023-07-13T15:52:50;23.10;99.90
30206;DHT22;17010;51.306;3.150;2023-07-13T15:55:17;23.00;99.90
30206;DHT22;17010;51.306;3.150;2023-07-13T15:57:49;23.10;99.90
30206;DHT22;17010;51.306;3.150;2023-07-13T16:00:24;22.90;99.90
30206;DHT22;17010;51.306;3.150;2023-07-13T16:02:51;22.80;99.90
30206;DHT22;17010;51.306;3.150;2023-07-13T16:05:20;22.70;99.90
30206;DHT22;17010;51.306;3.150;2023-07-13T16:07:48;22.80;99.90
30206;DHT22;17010;51.306;3.150;2023-07-13T16:10:32;22.70;99.90
30206;DHT22;17010;51.306;3.150;2023-07-13T16:13:01;22.70;99.90
30206;DHT22;17010;51.306;3.150;2023-07-13T16:15:33;22.60;99.90
30206;DHT22;17010;51.306;3.150;2023-07-13T16:18:01;22.60;99.90
30206;DHT22;17010;51.306;3.150;2023-07-13T16:20:27;22.50;99.90
30206;DHT22;17010;51.306;3.150;2023-07-13T16:22:55;22.50;99.90
30206;DHT22;17010;51.306;3.150;2023-07-13T16:25:24;22.60;99.90
30206;DHT22;17010;51.306;3.150;2023-07-13T16:28:03;22.50;99.90
30206;DHT22;17010;51.306;3.150;2023-07-13T16:30:31;22.40;99.90
30206;DHT22;17010;51.306;3.150;2023-07-13T16:33:00;22.40;99.90
30206;DHT22;17010;51.306;3.150;2023-07-13T16:35:45;22.30;99.90
30206;DHT22;17010;51.306;3.150;2023-07-13T16:38:25;22.20;99.90
30206;DHT22;17010;51.306;3.150;2023-07-13T16:40:54;22.10;99.90
30206;DHT22;17010;51.306;3.150;2023-07-13T16:43:20;22.10;99.90
30206;DHT22;17010;51.306;3.150;2023-07-13T16:45:48;22.10;99.90
30206;DHT22;17010;51.306;3.150;2023-07-13T16:48:23;22.10;99.90
30206;DHT22;17010;51.306;3.150;2023-07-13T16:50:57;22.10;99.90
30206;DHT22;17010;51.306;3.150;2023-07-13T16:53:32;22.10;99.90
30206;DHT22;17010;51.306;3.150;2023-07-13T16:56:02;22.10;99.90
30206;DHT22;17010;51.306;3.150;2023-07-13T16:58:33;22.20;99.90
30206;DHT22;17010;51.306;3.150;2023-07-13T17:01:14;22.10;99.90
30206;DHT22;17010;51.306;3.150;2023-07-13T17:03:41;22.10;99.90
30206;DHT22;17010;51.306;3.150;2023-07-13T17:09:26;21.90;99.90
30206;DHT22;17010;51.306;3.150;2023-07-13T17:12:02;22.00;99.90
30206;DHT22;17010;51.306;3.150;2023-07-13T17:14:48;22.00;99.90
30206;DHT22;17010;51.306;3.150;2023-07-13T17:17:45;22.00;99.90
30206;DHT22;17010;51.306;3.150;2023-07-13T17:20:51;22.00;99.90
30206;DHT22;17010;51.306;3.150;2023-07-13T17:23:42;22.00;99.90
30206;DHT22;17010;51.306;3.150;2023-07-13T17:26:30;22.00;99.90
30206;DHT22;17010;51.306;3.150;2023-07-13T17:29:18;22.00;99.90
30206;DHT22;17010;51.306;3.150;2023-07-13T17:32:27;22.00;99.90
30206;DHT22;17010;51.306;3.150;2023-07-13T17:35:28;22.00;99.90
